Route Details

Aircraft Information
Group: North America Fleet
Types: B738, B752, B762, B763
Route Data
Distance: 710nm
Duration: 2h 14m
Origin METAR: KIAH 160053Z 12011KT 10SM SCT045 BKN250 31/24 A2989 RMK AO2 SLP119 T03060239
Dest. METAR: KLAL 160050Z 22005KT 10SM SKC 27/23 A2991
Freight Data
(for Aug 16, 2022)
Load Factor:
26%
Manifested Cargo: 17,784lbs
Financial History
Total Freight: 57,095lbs
Average Load: 0lbs/flt
Fuel Used: 41,262lbs
Avg. Fuel Used: 0lbs/flt
Fuel Expense: $22,334
Avg. Fuel Expense: $0
Avg. Fuel Cost: $0/lbs
Total Gross Income: $145,592
Pilot Pay: $408
Total Expenses: $29,204
Total Revenue: $92,374
Average Revenue: $0

Capitol Logistics 415




KIAH
George Bush Intcntl/Houston Airport
Houston, Texas
KLAL
Lakeland Linder Regional Airport
Lakeland, Florida

Activity Log

Date Flight Route Aircraft Duration
07/27/2022 CPX415 GUMBY3 LCH J2 DEFUN MAATY3 B762 2h 27m
07/17/2022 CPX415 MMUGS4 LLA DCT LEV Y280 CHRGE RAYZZ2 B763 2h 23m